sensor_id;sensor_type;location;lat;lon;timestamp;P1;durP1;ratioP1;P2;durP2;ratioP2
45296;SDS011;31040;51.622;10.420;2022-08-19T00:00:38;13.70;;;12.30;;
45296;SDS011;31040;51.622;10.420;2022-08-19T00:03:36;14.75;;;13.30;;
45296;SDS011;31040;51.622;10.420;2022-08-19T00:06:27;14.10;;;12.80;;
45296;SDS011;31040;51.622;10.420;2022-08-19T00:09:18;15.02;;;12.63;;
45296;SDS011;31040;51.622;10.420;2022-08-19T00:12:24;16.77;;;14.65;;
45296;SDS011;31040;51.622;10.420;2022-08-19T00:15:14;19.10;;;16.98;;
45296;SDS011;31040;51.622;10.420;2022-08-19T00:18:11;16.75;;;15.05;;
45296;SDS011;31040;51.622;10.420;2022-08-19T00:20:59;17.10;;;15.50;;
45296;SDS011;31040;51.622;10.420;2022-08-19T00:24:07;16.70;;;15.00;;
45296;SDS011;31040;51.622;10.420;2022-08-19T00:27:05;16.85;;;14.82;;
45296;SDS011;31040;51.622;10.420;2022-08-19T00:30:05;16.38;;;14.77;;
45296;SDS011;31040;51.622;10.420;2022-08-19T00:36:36;14.85;;;13.45;;
45296;SDS011;31040;51.622;10.420;2022-08-19T00:40:03;16.20;;;14.50;;
45296;SDS011;31040;51.622;10.420;2022-08-19T01:34:56;15.10;;;13.70;;
45296;SDS011;31040;51.622;10.420;2022-08-19T01:41:58;14.95;;;13.55;;
45296;SDS011;31040;51.622;10.420;2022-08-19T01:52:16;16.92;;;15.38;;
45296;SDS011;31040;51.622;10.420;2022-08-19T02:22:35;19.10;;;17.25;;
45296;SDS011;31040;51.622;10.420;2022-08-19T02:25:05;17.40;;;15.70;;
45296;SDS011;31040;51.622;10.420;2022-08-19T02:27:33;17.77;;;16.17;;
45296;SDS011;31040;51.622;10.420;2022-08-19T02:30:01;17.52;;;15.93;;
45296;SDS011;31040;51.622;10.420;2022-08-19T02:32:28;17.20;;;15.45;;
45296;SDS011;31040;51.622;10.420;2022-08-19T02:34:57;16.40;;;14.90;;
45296;SDS011;31040;51.622;10.420;2022-08-19T02:37:26;20.27;;;18.27;;
45296;SDS011;31040;51.622;10.420;2022-08-19T02:40:12;20.63;;;18.60;;
45296;SDS011;31040;51.622;10.420;2022-08-19T02:42:40;23.67;;;20.38;;
45296;SDS011;31040;51.622;10.420;2022-08-19T02:45:07;23.30;;;18.95;;
45296;SDS011;31040;51.622;10.420;2022-08-19T02:47:36;21.27;;;17.55;;
45296;SDS011;31040;51.622;10.420;2022-08-19T02:50:03;21.60;;;17.95;;
45296;SDS011;31040;51.622;10.420;2022-08-19T02:52:32;20.40;;;16.80;;
45296;SDS011;31040;51.622;10.420;2022-08-19T02:55:00;18.08;;;16.00;;
45296;SDS011;31040;51.622;10.420;2022-08-19T02:57:27;17.55;;;15.65;;
45296;SDS011;31040;51.622;10.420;2022-08-19T03:00:00;19.83;;;16.02;;
45296;SDS011;31040;51.622;10.420;2022-08-19T03:02:28;18.27;;;16.38;;
45296;SDS011;31040;51.622;10.420;2022-08-19T03:04:57;16.08;;;14.43;;
45296;SDS011;31040;51.622;10.420;2022-08-19T03:07:24;19.83;;;15.75;;
45296;SDS011;31040;51.622;10.420;2022-08-19T03:09:55;16.85;;;15.13;;
45296;SDS011;31040;51.622;10.420;2022-08-19T03:12:23;17.42;;;15.55;;
45296;SDS011;31040;51.622;10.420;2022-08-19T03:14:51;17.13;;;15.32;;
45296;SDS011;31040;51.622;10.420;2022-08-19T03:17:19;15.55;;;13.85;;
45296;SDS011;31040;51.622;10.420;2022-08-19T03:19:46;17.83;;;14.20;;
45296;SDS011;31040;51.622;10.420;2022-08-19T03:22:18;15.93;;;13.85;;
45296;SDS011;31040;51.622;10.420;2022-08-19T03:24:45;14.70;;;13.20;;
45296;SDS011;31040;51.622;10.420;2022-08-19T03:27:13;16.05;;;13.40;;
45296;SDS011;31040;51.622;10.420;2022-08-19T03:29:41;16.10;;;14.27;;
45296;SDS011;31040;51.622;10.420;2022-08-19T03:32:09;14.50;;;13.10;;
45296;SDS011;31040;51.622;10.420;2022-08-19T03:34:56;18.98;;;13.90;;
45296;SDS011;31040;51.622;10.420;2022-08-19T03:37:24;18.42;;;13.77;;
45296;SDS011;31040;51.622;10.420;2022-08-19T03:39:53;15.65;;;13.18;;
45296;SDS011;31040;51.622;10.420;2022-08-19T03:42:24;17.05;;;13.57;;
45296;SDS011;31040;51.622;10.420;2022-08-19T03:45:04;18.17;;;13.82;;
45296;SDS011;31040;51.622;10.420;2022-08-19T03:47:33;14.85;;;13.02;;
45296;SDS011;31040;51.622;10.420;2022-08-19T03:50:02;18.08;;;13.95;;
45296;SDS011;31040;51.622;10.420;2022-08-19T03:52:35;16.15;;;13.82;;
45296;SDS011;31040;51.622;10.420;2022-08-19T03:55:13;18.42;;;15.32;;
45296;SDS011;31040;51.622;10.420;2022-08-19T03:57:41;18.67;;;15.35;;
45296;SDS011;31040;51.622;10.420;2022-08-19T04:00:14;16.88;;;14.48;;
45296;SDS011;31040;51.622;10.420;2022-08-19T04:02:42;19.88;;;15.05;;
45296;SDS011;31040;51.622;10.420;2022-08-19T04:05:26;17.77;;;14.77;;
45296;SDS011;31040;51.622;10.420;2022-08-19T04:07:55;23.70;;;17.05;;
45296;SDS011;31040;51.622;10.420;2022-08-19T04:10:26;19.70;;;15.65;;
45296;SDS011;31040;51.622;10.420;2022-08-19T04:12:54;17.60;;;15.75;;
45296;SDS011;31040;51.622;10.420;2022-08-19T04:15:22;18.15;;;16.20;;
45296;SDS011;31040;51.622;10.420;2022-08-19T04:17:51;20.25;;;15.98;;
45296;SDS011;31040;51.622;10.420;2022-08-19T04:20:21;20.27;;;16.73;;
45296;SDS011;31040;51.622;10.420;2022-08-19T04:22:49;16.98;;;15.18;;
45296;SDS011;31040;51.622;10.420;2022-08-19T04:25:19;21.02;;;17.05;;
45296;SDS011;31040;51.622;10.420;2022-08-19T04:27:48;18.73;;;16.48;;
45296;SDS011;31040;51.622;10.420;2022-08-19T04:30:18;22.92;;;17.42;;
45296;SDS011;31040;51.622;10.420;2022-08-19T04:32:47;23.98;;;17.45;;
45296;SDS011;31040;51.622;10.420;2022-08-19T04:35:14;23.45;;;19.00;;
45296;SDS011;31040;51.622;10.420;2022-08-19T04:37:47;22.95;;;19.63;;
45296;SDS011;31040;51.622;10.420;2022-08-19T04:40:14;25.00;;;19.00;;
45296;SDS011;31040;51.622;10.420;2022-08-19T04:43:00;23.08;;;18.60;;
45296;SDS011;31040;51.622;10.420;2022-08-19T04:45:28;22.95;;;19.58;;
45296;SDS011;31040;51.622;10.420;2022-08-19T04:48:08;26.27;;;19.65;;
45296;SDS011;31040;51.622;10.420;2022-08-19T04:50:53;21.55;;;18.02;;
45296;SDS011;31040;51.622;10.420;2022-08-19T04:53:31;23.42;;;19.77;;
45296;SDS011;31040;51.622;10.420;2022-08-19T04:56:08;23.25;;;18.48;;
45296;SDS011;31040;51.622;10.420;2022-08-19T04:58:37;25.20;;;19.13;;
45296;SDS011;31040;51.622;10.420;2022-08-19T05:01:04;21.80;;;18.52;;
45296;SDS011;31040;51.622;10.420;2022-08-19T05:03:32;21.58;;;18.08;;
45296;SDS011;31040;51.622;10.420;2022-08-19T05:06:06;18.42;;;16.15;;
45296;SDS011;31040;51.622;10.420;2022-08-19T05:08:34;22.93;;;18.03;;
45296;SDS011;31040;51.622;10.420;2022-08-19T05:11:07;21.55;;;16.92;;
45296;SDS011;31040;51.622;10.420;2022-08-19T05:13:39;17.92;;;16.13;;
45296;SDS011;31040;51.622;10.420;2022-08-19T05:16:07;18.67;;;15.82;;
45296;SDS011;31040;51.622;10.420;2022-08-19T05:18:34;20.35;;;14.13;;
45296;SDS011;31040;51.622;10.420;2022-08-19T05:21:21;16.67;;;14.82;;
45296;SDS011;31040;51.622;10.420;2022-08-19T05:24:07;15.27;;;13.63;;
45296;SDS011;31040;51.622;10.420;2022-08-19T05:26:36;15.77;;;14.15;;
45296;SDS011;31040;51.622;10.420;2022-08-19T05:29:05;15.95;;;13.88;;
45296;SDS011;31040;51.622;10.420;2022-08-19T05:31:35;17.00;;;13.73;;
45296;SDS011;31040;51.622;10.420;2022-08-19T05:34:07;16.10;;;14.27;;
45296;SDS011;31040;51.622;10.420;2022-08-19T05:36:45;16.25;;;14.07;;
45296;SDS011;31040;51.622;10.420;2022-08-19T05:39:19;16.13;;;12.10;;
45296;SDS011;31040;51.622;10.420;2022-08-19T05:41:48;15.23;;;12.75;;
45296;SDS011;31040;51.622;10.420;2022-08-19T05:44:17;17.33;;;12.55;;
45296;SDS011;31040;51.622;10.420;2022-08-19T05:46:44;13.23;;;11.20;;
45296;SDS011;31040;51.622;10.420;2022-08-19T05:49:15;13.15;;;11.23;;
45296;SDS011;31040;51.622;10.420;2022-08-19T05:51:43;13.90;;;10.77;;
45296;SDS011;31040;51.622;10.420;2022-08-19T05:54:10;12.93;;;10.13;;
45296;SDS011;31040;51.622;10.420;2022-08-19T05:56:40;14.95;;;10.20;;
45296;SDS011;31040;51.622;10.420;2022-08-19T05:59:08;14.15;;;8.95;;
45296;SDS011;31040;51.622;10.420;2022-08-19T06:01:37;12.27;;;8.50;;
45296;SDS011;31040;51.622;10.420;2022-08-19T06:04:05;13.98;;;8.20;;
45296;SDS011;31040;51.622;10.420;2022-08-19T06:06:33;12.70;;;8.25;;
45296;SDS011;31040;51.622;10.420;2022-08-19T06:09:05;10.35;;;8.00;;
45296;SDS011;31040;51.622;10.420;2022-08-19T06:11:38;9.32;;;7.90;;
45296;SDS011;31040;51.622;10.420;2022-08-19T06:14:10;9.77;;;6.40;;
45296;SDS011;31040;51.622;10.420;2022-08-19T06:16:42;12.63;;;6.25;;
45296;SDS011;31040;51.622;10.420;2022-08-19T06:19:14;8.23;;;6.50;;
45296;SDS011;31040;51.622;10.420;2022-08-19T06:21:43;8.98;;;5.53;;
45296;SDS011;31040;51.622;10.420;2022-08-19T06:24:12;10.23;;;5.88;;
45296;SDS011;31040;51.622;10.420;2022-08-19T06:26:41;11.52;;;5.75;;
45296;SDS011;31040;51.622;10.420;2022-08-19T06:29:10;7.78;;;5.72;;
45296;SDS011;31040;51.622;10.420;2022-08-19T06:31:50;7.88;;;5.40;;
45296;SDS011;31040;51.622;10.420;2022-08-19T06:34:19;5.95;;;5.35;;
45296;SDS011;31040;51.622;10.420;2022-08-19T06:36:48;7.55;;;4.93;;
45296;SDS011;31040;51.622;10.420;2022-08-19T06:39:20;7.05;;;4.32;;
45296;SDS011;31040;51.622;10.420;2022-08-19T06:41:48;5.88;;;5.00;;
45296;SDS011;31040;51.622;10.420;2022-08-19T06:44:20;10.20;;;5.20;;
45296;SDS011;31040;51.622;10.420;2022-08-19T06:46:51;9.43;;;4.65;;
45296;SDS011;31040;51.622;10.420;2022-08-19T06:49:20;11.23;;;5.40;;
45296;SDS011;31040;51.622;10.420;2022-08-19T06:51:48;6.00;;;4.80;;
45296;SDS011;31040;51.622;10.420;2022-08-19T06:54:17;5.32;;;4.13;;
45296;SDS011;31040;51.622;10.420;2022-08-19T06:56:46;4.68;;;4.15;;
45296;SDS011;31040;51.622;10.420;2022-08-19T06:59:15;6.95;;;3.80;;
45296;SDS011;31040;51.622;10.420;2022-08-19T07:01:48;9.43;;;4.68;;
45296;SDS011;31040;51.622;10.420;2022-08-19T07:04:21;7.97;;;4.25;;
45296;SDS011;31040;51.622;10.420;2022-08-19T07:06:50;4.65;;;4.15;;
45296;SDS011;31040;51.622;10.420;2022-08-19T07:09:20;7.15;;;4.10;;
45296;SDS011;31040;51.622;10.420;2022-08-19T07:11:50;7.90;;;4.35;;
45296;SDS011;31040;51.622;10.420;2022-08-19T07:14:20;4.20;;;3.80;;
45296;SDS011;31040;51.622;10.420;2022-08-19T07:16:49;6.22;;;4.40;;
45296;SDS011;31040;51.622;10.420;2022-08-19T07:19:18;7.88;;;4.63;;
45296;SDS011;31040;51.622;10.420;2022-08-19T07:21:47;7.53;;;4.03;;
45296;SDS011;31040;51.622;10.420;2022-08-19T07:24:16;9.50;;;5.00;;
45296;SDS011;31040;51.622;10.420;2022-08-19T07:26:44;6.78;;;4.38;;
45296;SDS011;31040;51.622;10.420;2022-08-19T07:29:17;7.00;;;5.05;;
45296;SDS011;31040;51.622;10.420;2022-08-19T07:31:51;8.30;;;4.75;;
45296;SDS011;31040;51.622;10.420;2022-08-19T07:34:19;5.63;;;3.97;;
45296;SDS011;31040;51.622;10.420;2022-08-19T07:36:47;9.50;;;5.07;;
45296;SDS011;31040;51.622;10.420;2022-08-19T07:39:17;7.18;;;4.50;;
45296;SDS011;31040;51.622;10.420;2022-08-19T07:41:45;7.55;;;5.35;;
45296;SDS011;31040;51.622;10.420;2022-08-19T07:44:14;7.10;;;5.00;;
45296;SDS011;31040;51.622;10.420;2022-08-19T07:46:43;7.13;;;5.05;;
45296;SDS011;31040;51.622;10.420;2022-08-19T07:49:15;9.70;;;5.35;;
45296;SDS011;31040;51.622;10.420;2022-08-19T07:51:46;6.03;;;5.43;;
45296;SDS011;31040;51.622;10.420;2022-08-19T07:54:15;5.57;;;5.05;;
45296;SDS011;31040;51.622;10.420;2022-08-19T07:56:43;6.40;;;5.20;;
45296;SDS011;31040;51.622;10.420;2022-08-19T07:59:10;5.63;;;4.63;;
45296;SDS011;31040;51.622;10.420;2022-08-19T08:01:38;6.72;;;4.90;;
45296;SDS011;31040;51.622;10.420;2022-08-19T08:04:07;7.20;;;6.45;;
45296;SDS011;31040;51.622;10.420;2022-08-19T08:06:53;5.97;;;5.38;;
45296;SDS011;31040;51.622;10.420;2022-08-19T08:09:41;5.95;;;4.88;;
45296;SDS011;31040;51.622;10.420;2022-08-19T08:12:16;10.30;;;4.95;;
45296;SDS011;31040;51.622;10.420;2022-08-19T08:17:33;7.28;;;4.78;;
45296;SDS011;31040;51.622;10.420;2022-08-19T08:20:15;6.18;;;4.90;;
45296;SDS011;31040;51.622;10.420;2022-08-19T08:22:43;6.28;;;5.18;;
45296;SDS011;31040;51.622;10.420;2022-08-19T08:25:30;5.00;;;4.30;;
45296;SDS011;31040;51.622;10.420;2022-08-19T08:28:00;5.65;;;4.68;;
45296;SDS011;31040;51.622;10.420;2022-08-19T08:30:29;7.35;;;4.60;;
45296;SDS011;31040;51.622;10.420;2022-08-19T08:32:58;6.78;;;4.32;;
45296;SDS011;31040;51.622;10.420;2022-08-19T08:35:27;4.75;;;3.97;;
45296;SDS011;31040;51.622;10.420;2022-08-19T08:37:55;6.70;;;4.07;;
45296;SDS011;31040;51.622;10.420;2022-08-19T08:40:28;4.47;;;3.67;;
45296;SDS011;31040;51.622;10.420;2022-08-19T08:45:26;4.25;;;3.85;;
45296;SDS011;31040;51.622;10.420;2022-08-19T08:48:10;6.47;;;4.15;;
45296;SDS011;31040;51.622;10.420;2022-08-19T08:50:49;5.35;;;4.45;;
45296;SDS011;31040;51.622;10.420;2022-08-19T08:53:19;6.60;;;4.63;;
45296;SDS011;31040;51.622;10.420;2022-08-19T08:55:58;7.55;;;4.30;;
45296;SDS011;31040;51.622;10.420;2022-08-19T09:01:19;6.05;;;4.30;;
45296;SDS011;31040;51.622;10.420;2022-08-19T09:03:55;4.68;;;4.13;;
45296;SDS011;31040;51.622;10.420;2022-08-19T09:06:43;4.82;;;3.78;;
45296;SDS011;31040;51.622;10.420;2022-08-19T09:09:20;4.82;;;3.60;;
45296;SDS011;31040;51.622;10.420;2022-08-19T09:14:39;5.28;;;3.63;;
45296;SDS011;31040;51.622;10.420;2022-08-19T09:17:19;4.65;;;3.60;;
45296;SDS011;31040;51.622;10.420;2022-08-19T09:19:58;4.38;;;3.40;;
45296;SDS011;31040;51.622;10.420;2022-08-19T09:22:37;8.40;;;4.05;;
45296;SDS011;31040;51.622;10.420;2022-08-19T09:25:06;3.95;;;3.33;;
45296;SDS011;31040;51.622;10.420;2022-08-19T09:27:33;4.35;;;3.45;;
45296;SDS011;31040;51.622;10.420;2022-08-19T09:30:31;3.80;;;3.17;;
45296;SDS011;31040;51.622;10.420;2022-08-19T09:33:02;5.22;;;3.58;;
45296;SDS011;31040;51.622;10.420;2022-08-19T09:35:33;4.15;;;3.75;;
45296;SDS011;31040;51.622;10.420;2022-08-19T09:38:21;4.53;;;3.60;;
45296;SDS011;31040;51.622;10.420;2022-08-19T09:40:49;5.05;;;3.05;;
45296;SDS011;31040;51.622;10.420;2022-08-19T09:43:16;3.58;;;3.28;;
45296;SDS011;31040;51.622;10.420;2022-08-19T09:45:59;3.05;;;2.85;;
45296;SDS011;31040;51.622;10.420;2022-08-19T09:48:27;4.30;;;3.30;;
45296;SDS011;31040;51.622;10.420;2022-08-19T09:51:01;4.25;;;3.38;;
45296;SDS011;31040;51.622;10.420;2022-08-19T09:53:30;3.42;;;2.92;;
45296;SDS011;31040;51.622;10.420;2022-08-19T09:55:59;2.95;;;2.75;;
45296;SDS011;31040;51.622;10.420;2022-08-19T09:58:29;2.90;;;2.70;;
45296;SDS011;31040;51.622;10.420;2022-08-19T10:00:57;3.60;;;3.30;;
45296;SDS011;31040;51.622;10.420;2022-08-19T10:03:26;3.05;;;2.80;;
45296;SDS011;31040;51.622;10.420;2022-08-19T10:05:56;4.20;;;3.35;;
45296;SDS011;31040;51.622;10.420;2022-08-19T10:08:28;5.72;;;3.22;;
45296;SDS011;31040;51.622;10.420;2022-08-19T10:10:57;4.18;;;2.80;;
45296;SDS011;31040;51.622;10.420;2022-08-19T10:13:44;3.25;;;2.30;;
45296;SDS011;31040;51.622;10.420;2022-08-19T10:16:13;2.20;;;2.10;;
45296;SDS011;31040;51.622;10.420;2022-08-19T10:18:42;2.20;;;2.10;;
45296;SDS011;31040;51.622;10.420;2022-08-19T10:21:16;3.42;;;2.40;;
45296;SDS011;31040;51.622;10.420;2022-08-19T10:23:44;3.30;;;2.13;;
45296;SDS011;31040;51.622;10.420;2022-08-19T10:26:13;3.70;;;2.17;;
45296;SDS011;31040;51.622;10.420;2022-08-19T10:28:41;5.20;;;1.98;;
45296;SDS011;31040;51.622;10.420;2022-08-19T10:31:13;2.60;;;1.90;;
45296;SDS011;31040;51.622;10.420;2022-08-19T10:33:44;2.03;;;1.55;;
45296;SDS011;31040;51.622;10.420;2022-08-19T10:36:20;2.20;;;2.00;;
45296;SDS011;31040;51.622;10.420;2022-08-19T10:38:50;2.55;;;1.92;;
45296;SDS011;31040;51.622;10.420;2022-08-19T10:41:23;2.90;;;2.22;;
45296;SDS011;31040;51.622;10.420;2022-08-19T10:43:51;4.15;;;2.60;;
45296;SDS011;31040;51.622;10.420;2022-08-19T10:46:21;3.00;;;2.33;;
45296;SDS011;31040;51.622;10.420;2022-08-19T10:48:50;3.08;;;2.00;;
45296;SDS011;31040;51.622;10.420;2022-08-19T10:51:18;2.50;;;2.30;;
45296;SDS011;31040;51.622;10.420;2022-08-19T10:54:13;3.10;;;2.90;;
45296;SDS011;31040;51.622;10.420;2022-08-19T10:56:41;4.55;;;2.67;;
45296;SDS011;31040;51.622;10.420;2022-08-19T10:59:21;2.53;;;2.20;;
45296;SDS011;31040;51.622;10.420;2022-08-19T11:01:52;5.88;;;2.85;;
45296;SDS011;31040;51.622;10.420;2022-08-19T11:04:21;3.22;;;2.80;;
45296;SDS011;31040;51.622;10.420;2022-08-19T11:06:54;4.78;;;2.50;;
45296;SDS011;31040;51.622;10.420;2022-08-19T11:09:23;2.42;;;2.28;;
45296;SDS011;31040;51.622;10.420;2022-08-19T11:11:59;2.53;;;2.30;;
45296;SDS011;31040;51.622;10.420;2022-08-19T11:14:30;2.13;;;2.00;;
45296;SDS011;31040;51.622;10.420;2022-08-19T11:17:00;3.08;;;2.30;;
45296;SDS011;31040;51.622;10.420;2022-08-19T11:19:27;3.40;;;2.22;;
45296;SDS011;31040;51.622;10.420;2022-08-19T11:21:54;3.88;;;2.60;;
45296;SDS011;31040;51.622;10.420;2022-08-19T11:24:25;3.78;;;2.25;;
45296;SDS011;31040;51.622;10.420;2022-08-19T11:26:54;3.15;;;2.50;;
45296;SDS011;31040;51.622;10.420;2022-08-19T11:29:25;5.30;;;2.50;;
45296;SDS011;31040;51.622;10.420;2022-08-19T11:31:54;4.35;;;2.20;;
45296;SDS011;31040;51.622;10.420;2022-08-19T11:34:23;6.55;;;3.00;;
45296;SDS011;31040;51.622;10.420;2022-08-19T11:36:52;2.40;;;2.10;;
45296;SDS011;31040;51.622;10.420;2022-08-19T11:39:23;4.10;;;2.47;;
45296;SDS011;31040;51.622;10.420;2022-08-19T11:41:51;2.88;;;2.35;;
45296;SDS011;31040;51.622;10.420;2022-08-19T11:44:18;2.47;;;2.13;;
45296;SDS011;31040;51.622;10.420;2022-08-19T11:46:46;2.83;;;2.20;;
45296;SDS011;31040;51.622;10.420;2022-08-19T11:49:14;1.98;;;1.88;;
45296;SDS011;31040;51.622;10.420;2022-08-19T11:51:42;2.50;;;2.30;;
45296;SDS011;31040;51.622;10.420;2022-08-19T11:54:14;2.00;;;1.90;;
45296;SDS011;31040;51.622;10.420;2022-08-19T11:56:45;2.50;;;2.22;;
45296;SDS011;31040;51.622;10.420;2022-08-19T11:59:14;2.45;;;2.08;;
45296;SDS011;31040;51.622;10.420;2022-08-19T12:01:42;4.05;;;2.47;;
45296;SDS011;31040;51.622;10.420;2022-08-19T12:04:10;3.25;;;2.60;;
45296;SDS011;31040;51.622;10.420;2022-08-19T12:06:38;2.65;;;1.98;;
45296;SDS011;31040;51.622;10.420;2022-08-19T12:09:07;2.22;;;2.05;;
45296;SDS011;31040;51.622;10.420;2022-08-19T12:11:36;2.05;;;1.95;;
45296;SDS011;31040;51.622;10.420;2022-08-19T12:14:05;2.20;;;2.10;;
45296;SDS011;31040;51.622;10.420;2022-08-19T12:16:32;2.75;;;2.00;;
45296;SDS011;31040;51.622;10.420;2022-08-19T12:19:03;2.67;;;2.45;;
45296;SDS011;31040;51.622;10.420;2022-08-19T12:21:33;2.42;;;2.08;;
45296;SDS011;31040;51.622;10.420;2022-08-19T12:24:01;2.30;;;2.08;;
45296;SDS011;31040;51.622;10.420;2022-08-19T12:26:29;2.25;;;2.05;;
45296;SDS011;31040;51.622;10.420;2022-08-19T12:29:00;2.13;;;1.92;;
45296;SDS011;31040;51.622;10.420;2022-08-19T12:31:28;2.38;;;1.90;;
45296;SDS011;31040;51.622;10.420;2022-08-19T12:33:56;2.33;;;1.95;;
45296;SDS011;31040;51.622;10.420;2022-08-19T12:36:23;2.05;;;1.95;;
45296;SDS011;31040;51.622;10.420;2022-08-19T12:38:51;1.88;;;1.77;;
45296;SDS011;31040;51.622;10.420;2022-08-19T12:41:19;3.33;;;1.60;;
45296;SDS011;31040;51.622;10.420;2022-08-19T12:43:48;3.22;;;2.00;;
45296;SDS011;31040;51.622;10.420;2022-08-19T12:46:17;2.58;;;1.83;;
45296;SDS011;31040;51.622;10.420;2022-08-19T12:48:47;1.77;;;1.67;;
45296;SDS011;31040;51.622;10.420;2022-08-19T12:51:20;2.75;;;1.70;;
45296;SDS011;31040;51.622;10.420;2022-08-19T12:53:47;2.00;;;1.50;;
45296;SDS011;31040;51.622;10.420;2022-08-19T12:56:16;2.08;;;1.65;;
45296;SDS011;31040;51.622;10.420;2022-08-19T12:58:48;1.45;;;1.33;;
45296;SDS011;31040;51.622;10.420;2022-08-19T13:01:18;2.30;;;1.20;;
45296;SDS011;31040;51.622;10.420;2022-08-19T13:03:48;1.30;;;1.23;;
45296;SDS011;31040;51.622;10.420;2022-08-19T13:06:16;2.10;;;1.30;;
45296;SDS011;31040;51.622;10.420;2022-08-19T13:08:45;1.75;;;1.27;;
45296;SDS011;31040;51.622;10.420;2022-08-19T13:11:17;1.60;;;1.50;;
45296;SDS011;31040;51.622;10.420;2022-08-19T13:13:46;1.80;;;1.30;;
45296;SDS011;31040;51.622;10.420;2022-08-19T13:16:14;2.30;;;1.50;;
45296;SDS011;31040;51.622;10.420;2022-08-19T13:18:45;1.40;;;1.30;;
45296;SDS011;31040;51.622;10.420;2022-08-19T13:21:14;3.70;;;1.50;;
45296;SDS011;31040;51.622;10.420;2022-08-19T13:23:41;1.98;;;0.90;;
45296;SDS011;31040;51.622;10.420;2022-08-19T13:26:09;1.60;;;1.40;;
45296;SDS011;31040;51.622;10.420;2022-08-19T13:28:36;1.83;;;1.50;;
45296;SDS011;31040;51.622;10.420;2022-08-19T13:31:23;2.05;;;1.50;;
45296;SDS011;31040;51.622;10.420;2022-08-19T13:34:10;2.05;;;1.60;;
45296;SDS011;31040;51.622;10.420;2022-08-19T13:36:38;1.75;;;1.45;;
45296;SDS011;31040;51.622;10.420;2022-08-19T13:39:06;1.55;;;1.45;;
45296;SDS011;31040;51.622;10.420;2022-08-19T13:41:35;1.73;;;1.63;;
45296;SDS011;31040;51.622;10.420;2022-08-19T13:44:04;1.50;;;1.40;;
45296;SDS011;31040;51.622;10.420;2022-08-19T13:46:33;1.48;;;1.38;;
45296;SDS011;31040;51.622;10.420;2022-08-19T13:49:00;1.33;;;1.23;;
45296;SDS011;31040;51.622;10.420;2022-08-19T13:51:27;2.10;;;1.40;;
45296;SDS011;31040;51.622;10.420;2022-08-19T13:53:55;2.85;;;1.30;;
45296;SDS011;31040;51.622;10.420;2022-08-19T13:56:22;1.88;;;1.40;;
45296;SDS011;31040;51.622;10.420;2022-08-19T13:58:51;1.40;;;1.27;;
45296;SDS011;31040;51.622;10.420;2022-08-19T14:01:20;2.05;;;1.23;;
45296;SDS011;31040;51.622;10.420;2022-08-19T14:03:50;1.30;;;1.20;;
45296;SDS011;31040;51.622;10.420;2022-08-19T14:06:17;2.33;;;1.20;;
45296;SDS011;31040;51.622;10.420;2022-08-19T14:08:45;1.65;;;1.55;;
45296;SDS011;31040;51.622;10.420;2022-08-19T14:11:12;1.55;;;0.90;;
45296;SDS011;31040;51.622;10.420;2022-08-19T14:13:40;2.83;;;1.30;;
45296;SDS011;31040;51.622;10.420;2022-08-19T14:16:08;2.03;;;1.20;;
45296;SDS011;31040;51.622;10.420;2022-08-19T14:18:36;1.80;;;1.45;;
45296;SDS011;31040;51.622;10.420;2022-08-19T14:21:04;2.25;;;1.27;;
45296;SDS011;31040;51.622;10.420;2022-08-19T14:23:32;1.85;;;1.25;;
45296;SDS011;31040;51.622;10.420;2022-08-19T14:26:07;1.95;;;1.20;;
45296;SDS011;31040;51.622;10.420;2022-08-19T14:28:34;1.20;;;1.20;;
45296;SDS011;31040;51.622;10.420;2022-08-19T14:31:02;2.40;;;1.38;;
45296;SDS011;31040;51.622;10.420;2022-08-19T14:33:29;1.33;;;1.13;;
45296;SDS011;31040;51.622;10.420;2022-08-19T14:35:58;1.30;;;1.20;;
45296;SDS011;31040;51.622;10.420;2022-08-19T14:38:26;1.48;;;1.00;;
45296;SDS011;31040;51.622;10.420;2022-08-19T14:41:19;1.77;;;1.05;;
45296;SDS011;31040;51.622;10.420;2022-08-19T14:43:46;1.30;;;1.20;;
45296;SDS011;31040;51.622;10.420;2022-08-19T14:46:14;1.35;;;1.25;;
45296;SDS011;31040;51.622;10.420;2022-08-19T14:48:43;1.52;;;1.25;;
45296;SDS011;31040;51.622;10.420;2022-08-19T14:51:10;2.28;;;1.30;;
45296;SDS011;31040;51.622;10.420;2022-08-19T14:53:38;1.52;;;0.95;;
45296;SDS011;31040;51.622;10.420;2022-08-19T14:56:10;3.03;;;1.00;;
45296;SDS011;31040;51.622;10.420;2022-08-19T14:58:38;1.02;;;1.00;;
45296;SDS011;31040;51.622;10.420;2022-08-19T15:01:07;2.55;;;1.20;;
45296;SDS011;31040;51.622;10.420;2022-08-19T15:03:35;1.13;;;1.10;;
45296;SDS011;31040;51.622;10.420;2022-08-19T15:06:03;1.30;;;1.20;;
45296;SDS011;31040;51.622;10.420;2022-08-19T15:08:31;1.00;;;1.00;;
45296;SDS011;31040;51.622;10.420;2022-08-19T15:11:00;2.25;;;1.20;;
45296;SDS011;31040;51.622;10.420;2022-08-19T15:13:28;2.70;;;1.13;;
45296;SDS011;31040;51.622;10.420;2022-08-19T15:15:57;2.50;;;1.10;;
45296;SDS011;31040;51.622;10.420;2022-08-19T15:18:24;0.98;;;0.98;;
45296;SDS011;31040;51.622;10.420;2022-08-19T15:20:52;1.08;;;1.02;;
45296;SDS011;31040;51.622;10.420;2022-08-19T15:23:19;1.05;;;0.98;;
45296;SDS011;31040;51.622;10.420;2022-08-19T15:25:47;3.15;;;1.00;;
45296;SDS011;31040;51.622;10.420;2022-08-19T15:28:18;4.05;;;1.40;;
45296;SDS011;31040;51.622;10.420;2022-08-19T15:30:45;2.55;;;1.30;;
45296;SDS011;31040;51.622;10.420;2022-08-19T15:33:13;2.25;;;1.02;;
45296;SDS011;31040;51.622;10.420;2022-08-19T15:35:41;3.42;;;1.20;;
45296;SDS011;31040;51.622;10.420;2022-08-19T15:38:09;2.05;;;1.20;;
45296;SDS011;31040;51.622;10.420;2022-08-19T15:40:40;1.63;;;1.30;;
45296;SDS011;31040;51.622;10.420;2022-08-19T15:43:08;1.42;;;1.10;;
45296;SDS011;31040;51.622;10.420;2022-08-19T15:45:37;1.90;;;1.25;;
45296;SDS011;31040;51.622;10.420;2022-08-19T15:48:05;1.75;;;1.20;;
45296;SDS011;31040;51.622;10.420;2022-08-19T15:50:33;1.42;;;1.33;;
45296;SDS011;31040;51.622;10.420;2022-08-19T15:53:03;1.27;;;1.17;;
45296;SDS011;31040;51.622;10.420;2022-08-19T15:55:32;1.20;;;1.10;;
45296;SDS011;31040;51.622;10.420;2022-08-19T15:58:05;1.25;;;1.15;;
45296;SDS011;31040;51.622;10.420;2022-08-19T16:00:57;2.60;;;1.50;;
45296;SDS011;31040;51.622;10.420;2022-08-19T16:03:50;1.48;;;1.20;;
45296;SDS011;31040;51.622;10.420;2022-08-19T16:06:51;1.58;;;1.40;;
45296;SDS011;31040;51.622;10.420;2022-08-19T16:09:19;1.13;;;1.00;;
45296;SDS011;31040;51.622;10.420;2022-08-19T16:11:52;1.23;;;1.13;;
45296;SDS011;31040;51.622;10.420;2022-08-19T16:14:27;3.55;;;1.40;;
45296;SDS011;31040;51.622;10.420;2022-08-19T16:16:58;1.30;;;1.20;;
45296;SDS011;31040;51.622;10.420;2022-08-19T16:19:25;1.10;;;1.10;;
45296;SDS011;31040;51.622;10.420;2022-08-19T16:21:54;1.40;;;1.30;;
45296;SDS011;31040;51.622;10.420;2022-08-19T16:24:23;1.20;;;1.08;;
45296;SDS011;31040;51.622;10.420;2022-08-19T16:26:50;1.60;;;1.20;;
45296;SDS011;31040;51.622;10.420;2022-08-19T16:29:18;2.53;;;1.38;;
45296;SDS011;31040;51.622;10.420;2022-08-19T16:32:00;1.83;;;1.20;;
45296;SDS011;31040;51.622;10.420;2022-08-19T16:34:28;1.20;;;1.10;;
45296;SDS011;31040;51.622;10.420;2022-08-19T16:36:56;1.80;;;1.10;;
45296;SDS011;31040;51.622;10.420;2022-08-19T16:39:23;1.50;;;1.38;;